This is the latest recevied weather packets stored in our database for station/object G6UYG-13. If no packets are shown the sender has not sent any weather packets the latest 10 day(s).
| Time | Temp. | Humidity | Pressure | Rain* | Wind** | Luminosity | Snow |
|---|---|---|---|---|---|---|---|
| 1777626655 | 18.33° C | 52% | 1017 hPa | 0 mm | - | 367 W/m² | - |
| 1777626235 | 17.78° C | 53% | 1017.2 hPa | 0 mm | - | 622 W/m² | - |
| 1777625815 | 17.22° C | 55% | 1017.1 hPa | 0 mm | - | 747 W/m² | - |
| 1777625395 | 16.67° C | 55% | 1017.3 hPa | 0 mm | - | 714 W/m² | - |
| 1777624975 | 16.11° C | 57% | 1017.3 hPa | 0 mm | - | 635 W/m² | - |
| 1777624555 | 15.56° C | 57% | 1017.2 hPa | 0 mm | - | 571 W/m² | - |
| 1777624135 | 15° C | 60% | 1017.3 hPa | 0 mm | - | 308 W/m² | - |
| 1777623715 | 14.44° C | 60% | 1017.4 hPa | 0 mm | - | 431 W/m² | - |
| 1777623295 | 13.89° C | 59% | 1017.4 hPa | 0 mm | - | 251 W/m² | - |
| 1777622875 | 13.89° C | 60% | 1017.4 hPa | 0 mm | - | 237 W/m² | - |
| 1777622456 | 13.89° C | 60% | 1017.5 hPa | 0 mm | - | 237 W/m² | - |
| 1777622036 | 13.33° C | 60% | 1017.5 hPa | 0 mm | - | 243 W/m² | - |
| 1777621616 | 13.33° C | 60% | 1017.4 hPa | 0 mm | - | 202 W/m² | - |
| 1777621196 | 13.89° C | 58% | 1017.4 hPa | 0 mm | - | 206 W/m² | - |
| 1777620776 | 13.89° C | 58% | 1017.3 hPa | 0 mm | - | 186 W/m² | - |
| 1777620356 | 13.89° C | 57% | 1017.2 hPa | 0 mm | - | 206 W/m² | - |
| 1777619936 | 13.89° C | 57% | 1017.2 hPa | 0 mm | - | 302 W/m² | - |
| 1777619516 | 13.33° C | 59% | 1017.3 hPa | 0 mm | - | 448 W/m² | - |
| 1777619096 | 12.78° C | 61% | 1017.3 hPa | 0 mm | - | 413 W/m² | - |
| 1777618676 | 12.22° C | 63% | 1017.2 hPa | 0 mm | - | 357 W/m² | - |
| 1777618256 | 11.67° C | 64% | 1017.3 hPa | 0 mm | - | 327 W/m² | - |
| 1777617836 | 11.67° C | 63% | 1017.2 hPa | 0 mm | - | 322 W/m² | - |
| 1777617416 | 11.11° C | 64% | 1017.2 hPa | 0 mm | - | 91 W/m² | - |
| 1777616996 | 11.11° C | 65% | 1017.3 hPa | 0 mm | - | 111 W/m² | - |
| 1777616576 | 10.56° C | 65% | 1017.4 hPa | 0 mm | - | 199 W/m² | - |
* Rain latest hour (hover to see other rain measurements)
** Current wind speed in m/s (hover to see current wind gust speed)